Terminal Aerodrome Forecast
Issued by NWS

Home | Current Version | Previous Version | Text Only | Print | Product List | Glossary On
Versions: 1 2 3 4 5 6 7 8 9 10 11 12 13 14
000
FTUS41 KBTV 281134
TAFMSS
TAF
KMSS 281134Z 2812/2912 25009KT P6SM SKC
     FM281500 28011G17KT P6SM FEW050
     FM290000 29008KT P6SM FEW150
     FM290500 VRB03KT P6SM BKN080=

USA.gov is the U.S. government's official web portal to all federal, state and local government web resources and services.